Time;durP1;ratioP1;P1;durP2;ratioP2;P2;SDS_P1;SDS_P2;PMS_P1;PMS_P2;Temp;Humidity;BMP_temperature;BMP_pressure;BME280_temperature;BME280_humidity;BME280_pressure;Samples;Min_cycle;Max_cycle;Signal;HPM_P1;HPM_P2
2022/11/21 00:00:45;;;;;;;14.43;7.55;;;;;;;;;;1790074;80;20992;-67
2022/11/21 00:03:12;;;;;;;12.47;6.58;;;;;;;;;;1789358;80;21094;-67
2022/11/21 00:05:42;;;;;;;11.80;6.97;;;;;;;;;;1780260;80;21056;-67
2022/11/21 00:08:10;;;;;;;11.12;6.03;;;;;;;;;;1783376;80;21472;-66
2022/11/21 00:10:36;;;;;;;13.43;6.83;;;;;;;;;;1782534;80;21072;-67
2022/11/21 00:13:04;;;;;;;13.18;6.85;;;;;;;;;;1790131;79;21602;-67
2022/11/21 00:15:30;;;;;;;14.07;7.10;;;;;;;;;;1767118;80;21551;-66
2022/11/21 00:17:56;;;;;;;14.20;7.47;;;;;;;;;;1783962;80;21044;-67
2022/11/21 00:20:23;;;;;;;12.33;6.65;;;;;;;;;;1767645;80;21067;-67
2022/11/21 00:22:50;;;;;;;16.32;7.37;;;;;;;;;;1780173;80;21032;-67
2022/11/21 00:25:17;;;;;;;15.25;8.55;;;;;;;;;;1789410;80;21471;-67
2022/11/21 00:27:44;;;;;;;12.50;7.85;;;;;;;;;;1777896;80;21079;-67
2022/11/21 00:30:11;;;;;;;13.55;8.33;;;;;;;;;;1782820;80;21071;-67
2022/11/21 00:32:37;;;;;;;14.13;7.42;;;;;;;;;;1774605;80;21996;-67
2022/11/21 00:35:04;;;;;;;13.95;8.03;;;;;;;;;;1783569;80;21047;-67
2022/11/21 00:37:31;;;;;;;16.52;8.38;;;;;;;;;;1777811;79;21013;-67
2022/11/21 00:39:57;;;;;;;13.88;7.70;;;;;;;;;;1788362;79;21574;-67
2022/11/21 00:42:24;;;;;;;13.18;7.53;;;;;;;;;;1793642;79;21034;-67
2022/11/21 00:44:52;;;;;;;11.70;6.67;;;;;;;;;;1787460;80;21480;-67
2022/11/21 00:47:18;;;;;;;15.10;7.53;;;;;;;;;;1778955;80;21028;-68
2022/11/21 00:49:45;;;;;;;16.37;7.35;;;;;;;;;;1775399;81;21041;-67
2022/11/21 00:52:11;;;;;;;14.18;8.08;;;;;;;;;;1781014;80;21040;-66
2022/11/21 00:54:37;;;;;;;14.75;7.72;;;;;;;;;;1786317;80;20965;-66
2022/11/21 00:57:04;;;;;;;14.68;7.53;;;;;;;;;;1790011;80;21500;-66
2022/11/21 00:59:30;;;;;;;14.75;7.70;;;;;;;;;;1760469;80;21066;-67
2022/11/21 01:01:56;;;;;;;14.13;7.08;;;;;;;;;;1723805;83;21083;-67
2022/11/21 01:04:22;;;;;;;16.60;7.95;;;;;;;;;;1729961;82;21031;-66
2022/11/21 01:06:49;;;;;;;14.35;8.25;;;;;;;;;;1761907;80;21004;-66
2022/11/21 01:09:15;;;;;;;17.60;8.53;;;;;;;;;;1751911;81;21072;-66
2022/11/21 01:11:42;;;;;;;15.00;7.05;;;;;;;;;;1782861;79;21016;-67
2022/11/21 01:14:08;;;;;;;13.78;7.53;;;;;;;;;;1788746;80;21071;-66
2022/11/21 01:16:34;;;;;;;15.95;8.28;;;;;;;;;;1781609;80;21067;-67
2022/11/21 01:19:02;;;;;;;13.50;6.42;;;;;;;;;;1781939;80;21009;-67
2022/11/21 01:21:29;;;;;;;16.35;7.53;;;;;;;;;;1779212;80;21080;-67
2022/11/21 01:23:55;;;;;;;16.95;8.80;;;;;;;;;;1782351;80;21040;-67
2022/11/21 01:26:23;;;;;;;17.42;9.08;;;;;;;;;;1781633;80;21098;-67
2022/11/21 01:28:49;;;;;;;16.85;7.83;;;;;;;;;;1782481;80;21020;-67
2022/11/21 01:31:22;;;;;;;16.32;7.80;;;;;;;;;;1786846;80;20996;-68
2022/11/21 01:33:49;;;;;;;15.00;7.33;;;;;;;;;;1769930;80;21017;-66
2022/11/21 01:36:16;;;;;;;15.45;8.48;;;;;;;;;;1782526;80;21048;-67
2022/11/21 01:38:50;;;;;;;18.37;9.43;;;;;;;;;;1788078;80;21008;-66
2022/11/21 01:41:18;;;;;;;17.75;8.30;;;;;;;;;;1785050;80;21079;-66
2022/11/21 01:43:45;;;;;;;19.82;10.15;;;;;;;;;;1776800;80;21005;-67
2022/11/21 01:46:12;;;;;;;15.20;7.58;;;;;;;;;;1782363;80;21064;-67
2022/11/21 01:48:44;;;;;;;17.12;8.75;;;;;;;;;;1784563;80;21496;-67
2022/11/21 01:51:12;;;;;;;18.35;9.18;;;;;;;;;;1785218;80;21354;-67
2022/11/21 01:53:38;;;;;;;18.52;9.20;;;;;;;;;;1781900;80;21083;-67
2022/11/21 01:56:05;;;;;;;15.93;8.38;;;;;;;;;;1744164;82;21562;-67
2022/11/21 01:58:31;;;;;;;16.10;8.20;;;;;;;;;;1746607;81;21032;-68
2022/11/21 02:03:48;;;;;;;16.65;9.10;;;;;;;;;;1753382;78;78106;-66
2022/11/21 02:06:14;;;;;;;20.40;9.50;;;;;;;;;;1697358;83;21028;-64
2022/11/21 02:08:42;;;;;;;17.30;8.70;;;;;;;;;;1699324;84;21657;-64
2022/11/21 02:11:10;;;;;;;16.73;8.18;;;;;;;;;;1681713;85;21045;-65
2022/11/21 02:13:36;;;;;;;16.87;7.85;;;;;;;;;;1687388;85;21050;-65
2022/11/21 02:16:03;;;;;;;14.15;8.23;;;;;;;;;;1683256;84;21053;-64
2022/11/21 02:18:29;;;;;;;16.82;8.73;;;;;;;;;;1672298;84;21615;-64
2022/11/21 02:20:57;;;;;;;16.02;8.15;;;;;;;;;;1681445;85;21026;-65
2022/11/21 02:23:31;;;;;;;17.15;8.83;;;;;;;;;;1681237;85;21065;-64
2022/11/21 02:25:57;;;;;;;18.02;8.38;;;;;;;;;;1683739;84;21058;-64
2022/11/21 02:28:24;;;;;;;18.37;8.88;;;;;;;;;;1682417;84;21017;-64
2022/11/21 02:30:49;;;;;;;17.45;7.75;;;;;;;;;;1702554;84;21549;-64
2022/11/21 02:33:16;;;;;;;17.32;7.55;;;;;;;;;;1687269;84;21496;-64
2022/11/21 02:35:42;;;;;;;17.15;8.53;;;;;;;;;;1680532;85;21068;-64
2022/11/21 02:38:26;;;;;;;16.12;8.18;;;;;;;;;;1680445;85;21108;-64
2022/11/21 02:40:54;;;;;;;15.93;8.13;;;;;;;;;;1590643;88;21112;-64
2022/11/21 02:43:23;;;;;;;19.52;8.93;;;;;;;;;;1653036;85;21096;-64
2022/11/21 02:45:50;;;;;;;19.55;8.75;;;;;;;;;;1680242;84;21496;-65
2022/11/21 02:48:16;;;;;;;12.70;7.00;;;;;;;;;;1680405;85;21101;-64
2022/11/21 02:50:42;;;;;;;20.25;8.95;;;;;;;;;;1682307;84;21032;-64
2022/11/21 02:53:11;;;;;;;17.42;8.95;;;;;;;;;;1682118;85;21568;-65
2022/11/21 02:55:37;;;;;;;15.08;8.40;;;;;;;;;;1682000;85;21045;-65
2022/11/21 02:58:04;;;;;;;16.55;8.68;;;;;;;;;;1681995;85;21045;-64
2022/11/21 03:00:31;;;;;;;18.27;9.08;;;;;;;;;;1681493;84;21102;-64
2022/11/21 03:02:57;;;;;;;18.35;8.98;;;;;;;;;;1680571;85;21045;-65
2022/11/21 03:05:23;;;;;;;21.02;9.73;;;;;;;;;;1648402;85;21075;-64
2022/11/21 03:07:50;;;;;;;16.87;8.58;;;;;;;;;;1662946;86;21547;-64
2022/11/21 03:10:17;;;;;;;13.22;7.58;;;;;;;;;;1646567;86;21027;-64
2022/11/21 03:12:43;;;;;;;18.23;8.65;;;;;;;;;;1668372;86;21023;-66
2022/11/21 03:15:10;;;;;;;15.93;8.20;;;;;;;;;;1661298;85;21340;-64
2022/11/21 03:17:36;;;;;;;18.17;8.00;;;;;;;;;;1636872;86;21044;-64
2022/11/21 03:20:03;;;;;;;15.18;7.67;;;;;;;;;;1661137;85;21046;-64
2022/11/21 03:22:29;;;;;;;15.05;7.83;;;;;;;;;;1637425;88;21521;-64
2022/11/21 03:24:55;;;;;;;13.30;6.75;;;;;;;;;;1653072;87;21014;-64
2022/11/21 03:27:21;;;;;;;16.05;7.55;;;;;;;;;;1666100;85;21116;-64
2022/11/21 03:29:48;;;;;;;13.48;7.17;;;;;;;;;;1638579;86;21099;-65
2022/11/21 03:32:14;;;;;;;18.37;8.60;;;;;;;;;;1662882;85;21861;-64
2022/11/21 03:34:41;;;;;;;17.42;8.15;;;;;;;;;;1671972;86;21089;-64
2022/11/21 03:37:07;;;;;;;16.07;7.70;;;;;;;;;;1663087;85;21076;-65
2022/11/21 03:39:34;;;;;;;16.20;7.55;;;;;;;;;;1653269;85;21116;-65
2022/11/21 03:42:00;;;;;;;18.23;8.80;;;;;;;;;;1650510;87;21091;-65
2022/11/21 03:44:26;;;;;;;17.75;9.45;;;;;;;;;;1649624;85;21048;-65
2022/11/21 03:46:52;;;;;;;18.15;8.90;;;;;;;;;;1649207;87;21120;-65
2022/11/21 03:49:19;;;;;;;13.50;7.22;;;;;;;;;;1652363;85;21124;-65
2022/11/21 03:51:45;;;;;;;16.20;8.28;;;;;;;;;;1679070;85;21611;-64
2022/11/21 03:54:11;;;;;;;13.10;7.33;;;;;;;;;;1676981;85;21540;-64
2022/11/21 03:56:41;;;;;;;19.60;8.05;;;;;;;;;;1653576;87;21059;-64
2022/11/21 03:59:07;;;;;;;19.75;9.03;;;;;;;;;;1660647;85;21020;-64
2022/11/21 04:01:33;;;;;;;11.85;6.37;;;;;;;;;;1654531;85;21060;-64
2022/11/21 04:04:00;;;;;;;12.30;6.20;;;;;;;;;;1672452;84;21107;-64
2022/11/21 04:06:26;;;;;;;16.05;8.15;;;;;;;;;;1668346;85;21027;-64
2022/11/21 04:08:53;;;;;;;15.60;7.55;;;;;;;;;;1661067;85;21036;-64
2022/11/21 04:11:20;;;;;;;17.25;8.53;;;;;;;;;;1685061;85;21073;-64
2022/11/21 04:13:47;;;;;;;17.02;7.78;;;;;;;;;;1675792;85;21024;-65
2022/11/21 04:16:13;;;;;;;14.03;7.90;;;;;;;;;;1675212;84;21089;-64
2022/11/21 04:18:40;;;;;;;16.62;8.13;;;;;;;;;;1665011;83;21618;-64
2022/11/21 04:21:07;;;;;;;17.50;8.78;;;;;;;;;;1662462;86;21056;-64
2022/11/21 04:23:34;;;;;;;16.35;7.87;;;;;;;;;;1633053;88;21064;-65
2022/11/21 04:26:00;;;;;;;19.05;8.75;;;;;;;;;;1675185;84;21056;-65
2022/11/21 04:28:26;;;;;;;16.97;7.92;;;;;;;;;;1658639;85;21100;-64
2022/11/21 04:30:53;;;;;;;13.43;7.37;;;;;;;;;;1652883;85;21521;-64
2022/11/21 04:33:19;;;;;;;16.77;8.00;;;;;;;;;;1654168;87;21052;-64
2022/11/21 04:35:45;;;;;;;14.20;7.33;;;;;;;;;;1659711;85;21041;-64
2022/11/21 04:38:12;;;;;;;15.58;7.35;;;;;;;;;;1661108;86;21082;-64
2022/11/21 04:40:38;;;;;;;17.92;8.23;;;;;;;;;;1641264;85;21555;-64
2022/11/21 04:43:04;;;;;;;18.48;8.58;;;;;;;;;;1663043;86;21080;-64
2022/11/21 04:45:31;;;;;;;15.60;7.08;;;;;;;;;;1655039;85;21076;-64
2022/11/21 04:47:57;;;;;;;14.90;7.47;;;;;;;;;;1627876;87;21136;-65
2022/11/21 04:50:23;;;;;;;19.52;8.35;;;;;;;;;;1638720;85;21076;-65
2022/11/21 04:52:50;;;;;;;19.10;9.10;;;;;;;;;;1629426;88;21094;-66
2022/11/21 04:55:17;;;;;;;20.50;9.43;;;;;;;;;;1629443;88;21557;-65
2022/11/21 04:57:43;;;;;;;20.08;9.15;;;;;;;;;;1635138;86;21055;-65
2022/11/21 05:00:10;;;;;;;17.32;8.63;;;;;;;;;;1647535;86;21072;-65
2022/11/21 05:02:37;;;;;;;17.55;8.28;;;;;;;;;;1714526;84;21042;-65
2022/11/21 05:05:04;;;;;;;21.17;9.80;;;;;;;;;;1716318;82;21081;-65
2022/11/21 05:07:30;;;;;;;18.85;9.28;;;;;;;;;;1722296;83;21057;-65
2022/11/21 05:09:57;;;;;;;18.67;8.50;;;;;;;;;;1701529;83;21126;-65
2022/11/21 05:14:51;;;;;;;16.07;7.97;;;;;;;;;;1653868;84;21105;-65
2022/11/21 05:17:19;;;;;;;21.73;9.83;;;;;;;;;;1697799;83;21086;-65
2022/11/21 05:19:45;;;;;;;19.10;9.70;;;;;;;;;;1703155;83;21046;-65
2022/11/21 05:22:12;;;;;;;17.10;8.68;;;;;;;;;;1682936;84;21059;-66
2022/11/21 05:24:38;;;;;;;23.50;10.70;;;;;;;;;;1708501;84;21009;-66
2022/11/21 05:27:04;;;;;;;18.52;9.28;;;;;;;;;;1690598;84;21117;-65
2022/11/21 05:29:31;;;;;;;17.12;8.55;;;;;;;;;;1696403;84;21124;-65
2022/11/21 05:31:57;;;;;;;22.58;9.45;;;;;;;;;;1689018;84;21033;-64
2022/11/21 05:34:23;;;;;;;20.75;8.68;;;;;;;;;;1707626;84;21112;-66
2022/11/21 05:36:55;;;;;;;21.65;8.93;;;;;;;;;;1677463;84;21019;-65
2022/11/21 05:39:20;;;;;;;26.52;10.88;;;;;;;;;;1698930;83;21555;-65
2022/11/21 05:41:47;;;;;;;21.10;10.03;;;;;;;;;;1681065;85;21016;-65
2022/11/21 05:44:13;;;;;;;23.70;10.68;;;;;;;;;;1700212;84;21034;-66
2022/11/21 05:46:41;;;;;;;20.75;11.00;;;;;;;;;;1666406;85;21516;-65
2022/11/21 05:49:07;;;;;;;17.90;9.30;;;;;;;;;;1684945;85;21014;-65
2022/11/21 05:51:33;;;;;;;22.67;9.90;;;;;;;;;;1667679;85;21074;-65
2022/11/21 05:53:59;;;;;;;25.17;11.20;;;;;;;;;;1663948;86;21519;-67
2022/11/21 05:56:26;;;;;;;21.57;10.18;;;;;;;;;;1667509;85;21071;-66
2022/11/21 05:58:55;;;;;;;19.92;9.08;;;;;;;;;;1666371;85;21114;-65
2022/11/21 06:04:07;;;;;;;18.98;9.35;;;;;;;;;;1664875;85;21592;-64
2022/11/21 06:06:33;;;;;;;20.45;8.88;;;;;;;;;;1653300;86;21045;-66
2022/11/21 06:08:59;;;;;;;18.87;9.45;;;;;;;;;;1642954;86;21048;-65
2022/11/21 06:11:26;;;;;;;21.10;9.33;;;;;;;;;;1640321;86;21108;-64
2022/11/21 06:13:52;;;;;;;24.27;10.38;;;;;;;;;;1632536;86;21115;-65
2022/11/21 06:16:20;;;;;;;18.80;9.00;;;;;;;;;;1640055;86;21078;-66
2022/11/21 06:18:48;;;;;;;20.27;8.18;;;;;;;;;;1647959;86;21015;-64
2022/11/21 06:21:17;;;;;;;22.40;11.28;;;;;;;;;;1651656;86;21517;-63
2022/11/21 06:23:43;;;;;;;18.52;8.13;;;;;;;;;;1633619;86;21572;-64
2022/11/21 06:28:18;;;;;;;17.62;9.00;;;;;;;;;;1819458;77;24671;-66
2022/11/21 06:30:50;;;;;;;20.77;10.08;;;;;;;;;;1791722;79;21607;-63
2022/11/21 06:33:15;;;;;;;24.82;11.15;;;;;;;;;;1750412;81;21531;-62
2022/11/21 06:35:41;;;;;;;26.62;10.95;;;;;;;;;;1737503;81;21037;-66
2022/11/21 06:38:07;;;;;;;20.30;9.60;;;;;;;;;;1750059;81;20965;-64
2022/11/21 06:40:34;;;;;;;18.42;8.43;;;;;;;;;;1746354;80;21107;-66
2022/11/21 06:43:00;;;;;;;26.52;11.68;;;;;;;;;;1742915;80;21033;-66
2022/11/21 06:45:26;;;;;;;25.27;10.88;;;;;;;;;;1730672;80;21064;-66
2022/11/21 06:47:52;;;;;;;25.12;11.45;;;;;;;;;;1772281;80;21112;-64
2022/11/21 06:50:18;;;;;;;22.32;10.75;;;;;;;;;;1759145;81;21103;-65
2022/11/21 06:52:45;;;;;;;26.33;11.03;;;;;;;;;;1739626;80;21093;-66
2022/11/21 06:55:11;;;;;;;27.25;12.70;;;;;;;;;;1757122;81;21048;-66
2022/11/21 06:57:37;;;;;;;20.48;9.65;;;;;;;;;;1745693;80;21060;-67
2022/11/21 07:00:05;;;;;;;20.65;10.63;;;;;;;;;;1749242;80;21064;-66
2022/11/21 07:02:31;;;;;;;24.63;11.83;;;;;;;;;;1744302;80;21048;-66
2022/11/21 07:04:58;;;;;;;28.65;11.60;;;;;;;;;;1752848;80;21023;-64
2022/11/21 07:07:24;;;;;;;30.97;11.85;;;;;;;;;;1746244;80;21063;-63
2022/11/21 07:09:51;;;;;;;24.18;10.55;;;;;;;;;;1746438;80;21012;-65
2022/11/21 07:15:04;;;;;;;25.90;12.45;;;;;;;;;;1759668;80;21060;-65
2022/11/21 07:17:30;;;;;;;29.67;12.43;;;;;;;;;;1753616;81;21500;-62
2022/11/21 07:19:56;;;;;;;22.50;10.63;;;;;;;;;;1750329;80;20993;-64
2022/11/21 07:22:23;;;;;;;26.82;12.53;;;;;;;;;;1751580;80;21076;-63
2022/11/21 07:24:49;;;;;;;23.47;11.18;;;;;;;;;;1757458;80;21029;-63
2022/11/21 07:27:15;;;;;;;29.63;12.00;;;;;;;;;;1750239;80;21104;-65
2022/11/21 07:29:41;;;;;;;21.97;10.43;;;;;;;;;;1716637;83;22207;-65
2022/11/21 07:32:08;;;;;;;26.10;11.22;;;;;;;;;;1716823;83;21006;-67
2022/11/21 07:34:34;;;;;;;27.80;12.20;;;;;;;;;;1731340;81;21040;-64
2022/11/21 07:37:01;;;;;;;25.15;12.10;;;;;;;;;;1744153;81;21485;-66
2022/11/21 07:39:27;;;;;;;23.32;11.28;;;;;;;;;;1772577;79;21028;-66
2022/11/21 07:41:54;;;;;;;23.50;11.95;;;;;;;;;;1771857;80;21091;-66
2022/11/21 07:44:21;;;;;;;22.82;10.80;;;;;;;;;;1770545;79;21091;-69
2022/11/21 07:46:47;;;;;;;25.40;11.80;;;;;;;;;;1770481;79;21110;-66
2022/11/21 07:49:13;;;;;;;24.00;11.75;;;;;;;;;;1775664;79;21021;-66
2022/11/21 07:51:40;;;;;;;25.35;11.28;;;;;;;;;;1769269;79;21039;-65
2022/11/21 07:54:06;;;;;;;19.62;9.00;;;;;;;;;;1768009;79;21005;-65
2022/11/21 07:56:32;;;;;;;23.42;10.70;;;;;;;;;;1774830;79;21028;-64
2022/11/21 07:58:59;;;;;;;19.12;9.55;;;;;;;;;;1780494;80;21017;-66
2022/11/21 08:01:25;;;;;;;23.95;10.50;;;;;;;;;;1769576;79;21056;-64
2022/11/21 08:03:51;;;;;;;23.62;11.85;;;;;;;;;;1757740;79;21117;-65
2022/11/21 08:06:18;;;;;;;26.52;12.58;;;;;;;;;;1778448;79;21032;-66
2022/11/21 08:08:44;;;;;;;29.00;13.22;;;;;;;;;;1760236;79;21056;-66
2022/11/21 08:11:10;;;;;;;24.27;11.35;;;;;;;;;;1770191;79;21013;-64
2022/11/21 08:13:37;;;;;;;27.77;13.32;;;;;;;;;;1778118;79;21083;-67
2022/11/21 08:16:03;;;;;;;29.63;12.13;;;;;;;;;;1771384;79;21452;-67
2022/11/21 08:18:32;;;;;;;31.17;12.07;;;;;;;;;;1767347;80;21119;-65
2022/11/21 08:21:00;;;;;;;35.52;14.53;;;;;;;;;;1777329;79;21025;-67
2022/11/21 08:23:26;;;;;;;32.00;13.00;;;;;;;;;;1783443;79;21028;-68
2022/11/21 08:25:52;;;;;;;34.08;13.13;;;;;;;;;;1777125;80;20997;-66
2022/11/21 08:28:18;;;;;;;33.02;12.63;;;;;;;;;;1749148;80;21033;-66
2022/11/21 08:30:44;;;;;;;29.98;13.13;;;;;;;;;;1744747;80;21531;-67
2022/11/21 08:33:11;;;;;;;30.55;13.05;;;;;;;;;;1744138;82;21064;-66
2022/11/21 08:35:37;;;;;;;38.53;13.18;;;;;;;;;;1755418;82;21020;-66
2022/11/21 08:38:04;;;;;;;30.23;12.73;;;;;;;;;;1752952;82;20965;-67
2022/11/21 08:40:30;;;;;;;32.65;12.58;;;;;;;;;;1741456;82;21492;-65
2022/11/21 08:43:00;;;;;;;33.90;13.20;;;;;;;;;;1682028;85;21076;-65
2022/11/21 08:45:26;;;;;;;39.50;15.08;;;;;;;;;;1683809;84;21100;-63
2022/11/21 08:47:52;;;;;;;28.23;11.73;;;;;;;;;;1686709;83;21099;-64
2022/11/21 08:50:19;;;;;;;26.35;12.95;;;;;;;;;;1691817;83;21096;-63
2022/11/21 08:52:45;;;;;;;37.38;14.58;;;;;;;;;;1690689;85;21033;-63
2022/11/21 08:55:11;;;;;;;34.58;12.45;;;;;;;;;;1682378;84;21074;-64
2022/11/21 08:57:38;;;;;;;29.80;13.25;;;;;;;;;;1689472;84;21041;-66
2022/11/21 09:00:05;;;;;;;34.58;15.83;;;;;;;;;;1689878;84;21104;-64
2022/11/21 09:22:49;;;;;;;33.30;15.50;;;;;;;;;;1786548;79;28258;-68
2022/11/21 09:25:16;;;;;;;29.25;13.68;;;;;;;;;;1762059;80;21554;-68
2022/11/21 09:27:42;;;;;;;30.55;12.60;;;;;;;;;;1764916;80;21000;-68
2022/11/21 09:30:09;;;;;;;29.10;13.48;;;;;;;;;;1773937;80;21067;-67
2022/11/21 09:32:37;;;;;;;27.30;12.55;;;;;;;;;;1768172;80;21020;-68
2022/11/21 09:35:04;;;;;;;30.85;14.43;;;;;;;;;;1764620;80;21059;-67
2022/11/21 09:37:32;;;;;;;27.05;13.05;;;;;;;;;;1755749;80;21512;-68
2022/11/21 09:39:58;;;;;;;30.40;13.58;;;;;;;;;;1760154;80;21099;-67
2022/11/21 09:42:26;;;;;;;26.00;12.40;;;;;;;;;;1764995;80;21113;-67
2022/11/21 09:45:11;;;;;;;30.08;13.62;;;;;;;;;;1762260;80;21021;-67
2022/11/21 09:47:40;;;;;;;29.45;12.40;;;;;;;;;;1770444;80;21040;-68
2022/11/21 09:50:14;;;;;;;26.30;12.82;;;;;;;;;;1770420;80;21516;-69
2022/11/21 09:52:50;;;;;;;28.07;12.15;;;;;;;;;;1757271;80;21017;-68
2022/11/21 09:55:36;;;;;;;25.95;11.38;;;;;;;;;;1758822;80;21037;-68
2022/11/21 09:58:04;;;;;;;24.67;10.53;;;;;;;;;;1760351;80;21712;-68
2022/11/21 10:00:31;;;;;;;24.40;11.43;;;;;;;;;;1765986;80;21030;-68
2022/11/21 10:02:56;;;;;;;20.32;9.45;;;;;;;;;;1759899;80;21536;-67
2022/11/21 10:05:29;;;;;;;23.18;12.63;;;;;;;;;;1762957;80;21589;-67
2022/11/21 10:07:55;;;;;;;24.82;11.33;;;;;;;;;;1722013;80;21433;-67
2022/11/21 10:10:23;;;;;;;21.95;10.72;;;;;;;;;;1750758;80;21135;-70
2022/11/21 10:12:57;;;;;;;24.43;11.00;;;;;;;;;;1740017;81;21016;-68
2022/11/21 10:15:36;;;;;;;25.97;11.45;;;;;;;;;;1728573;81;21031;-69
2022/11/21 10:18:10;;;;;;;27.58;13.65;;;;;;;;;;1735440;81;21024;-68
2022/11/21 10:20:42;;;;;;;22.73;11.12;;;;;;;;;;1739534;81;21040;-69
2022/11/21 10:23:28;;;;;;;25.60;13.58;;;;;;;;;;1732506;81;22412;-68
2022/11/21 10:26:00;;;;;;;19.30;9.90;;;;;;;;;;1728032;81;21547;-68
2022/11/21 10:28:27;;;;;;;21.77;11.93;;;;;;;;;;1726682;81;22117;-69
2022/11/21 10:30:53;;;;;;;21.45;10.18;;;;;;;;;;1723735;81;21008;-69
2022/11/21 10:33:21;;;;;;;19.62;9.95;;;;;;;;;;1735123;81;21024;-69
2022/11/21 10:35:48;;;;;;;18.12;9.23;;;;;;;;;;1736496;81;21040;-69
2022/11/21 10:38:22;;;;;;;20.25;9.88;;;;;;;;;;1726232;82;21043;-68
2022/11/21 10:41:08;;;;;;;15.95;8.43;;;;;;;;;;1724220;82;21555;-68
2022/11/21 10:46:22;;;;;;;18.65;9.53;;;;;;;;;;1726756;81;21026;-67
2022/11/21 10:48:58;;;;;;;21.75;11.55;;;;;;;;;;1729511;81;21053;-67
2022/11/21 10:51:26;;;;;;;21.40;10.15;;;;;;;;;;1731282;81;21024;-69
2022/11/21 10:56:48;;;;;;;16.27;10.03;;;;;;;;;;1733265;81;21014;-66
2022/11/21 10:59:25;;;;;;;17.32;9.08;;;;;;;;;;1727276;81;21099;-68
2022/11/21 11:01:55;;;;;;;15.65;8.63;;;;;;;;;;1694070;84;21032;-68
2022/11/21 11:04:21;;;;;;;18.80;9.58;;;;;;;;;;1693720;83;21048;-68
2022/11/21 11:06:47;;;;;;;22.90;10.25;;;;;;;;;;1722958;81;21013;-69
2022/11/21 11:09:23;;;;;;;16.82;9.03;;;;;;;;;;1727211;81;21045;-68
2022/11/21 11:11:50;;;;;;;23.05;10.58;;;;;;;;;;1730342;82;21597;-68
2022/11/21 11:14:18;;;;;;;20.23;10.15;;;;;;;;;;1743282;81;21153;-67
2022/11/21 11:16:45;;;;;;;21.05;10.82;;;;;;;;;;1736448;81;21040;-69
2022/11/21 11:19:15;;;;;;;22.07;10.20;;;;;;;;;;1726625;81;21172;-68
2022/11/21 11:21:45;;;;;;;19.23;9.08;;;;;;;;;;1730018;81;21554;-68
2022/11/21 11:24:14;;;;;;;17.73;8.88;;;;;;;;;;1732088;81;21095;-70
2022/11/21 11:26:48;;;;;;;16.37;8.43;;;;;;;;;;1734930;81;21044;-68
2022/11/21 11:40:59;;;;;;;11.97;6.47;;;;;;;;;;1801073;78;28282;-67
2022/11/21 11:49:24;;;;;;;9.48;5.47;;;;;;;;;;1772727;80;21075;-68
2022/11/21 11:51:52;;;;;;;9.20;5.20;;;;;;;;;;1786928;80;21588;-67
2022/11/21 11:54:24;;;;;;;10.30;4.58;;;;;;;;;;1782492;78;21039;-67
2022/11/21 11:56:50;;;;;;;10.10;5.05;;;;;;;;;;1789742;80;21023;-69
2022/11/21 11:59:21;;;;;;;11.78;5.75;;;;;;;;;;1786850;80;21004;-68
2022/11/21 12:01:52;;;;;;;11.85;5.20;;;;;;;;;;1784755;80;21068;-68
2022/11/21 12:04:19;;;;;;;7.83;4.65;;;;;;;;;;1787166;80;21071;-68
2022/11/21 12:06:57;;;;;;;9.15;5.22;;;;;;;;;;1790016;78;21571;-67
2022/11/21 12:09:40;;;;;;;7.85;4.30;;;;;;;;;;1779745;80;21111;-68
2022/11/21 12:12:10;;;;;;;8.27;4.50;;;;;;;;;;1789347;80;22233;-68
2022/11/21 12:17:34;;;;;;;6.92;4.47;;;;;;;;;;1794118;80;21208;-66
2022/11/21 12:20:02;;;;;;;7.47;4.40;;;;;;;;;;1795305;79;21063;-66
2022/11/21 12:22:29;;;;;;;9.23;4.53;;;;;;;;;;1795914;80;21035;-66
2022/11/21 12:24:56;;;;;;;7.25;4.40;;;;;;;;;;1785692;79;21083;-67
2022/11/21 12:27:30;;;;;;;8.20;4.08;;;;;;;;;;1785215;79;21000;-67
2022/11/21 12:30:04;;;;;;;6.80;4.00;;;;;;;;;;1785992;78;21504;-68
2022/11/21 12:32:38;;;;;;;7.50;4.05;;;;;;;;;;1794995;78;21055;-66
2022/11/21 12:35:15;;;;;;;6.80;3.77;;;;;;;;;;1787021;80;21527;-68
2022/11/21 12:37:43;;;;;;;7.33;3.72;;;;;;;;;;1788473;78;21010;-67
2022/11/21 12:40:30;;;;;;;8.63;4.53;;;;;;;;;;1756260;78;21016;-68
2022/11/21 12:43:01;;;;;;;6.78;4.40;;;;;;;;;;1790779;78;21056;-69
2022/11/21 12:45:39;;;;;;;8.18;3.98;;;;;;;;;;1783411;80;21483;-68
2022/11/21 12:54:32;;;;;;;7.10;3.85;;;;;;;;;;1797421;78;21039;-66
2022/11/21 12:57:06;;;;;;;6.75;3.85;;;;;;;;;;1797827;78;21380;-69
2022/11/21 12:59:34;;;;;;;6.78;4.33;;;;;;;;;;1777801;78;21020;-68
2022/11/21 13:02:05;;;;;;;8.98;4.15;;;;;;;;;;1773759;78;21547;-68
2022/11/21 13:04:33;;;;;;;6.75;3.98;;;;;;;;;;1778729;79;21036;-68
2022/11/21 13:06:59;;;;;;;8.48;4.25;;;;;;;;;;1789866;78;21150;-68
2022/11/21 13:09:26;;;;;;;6.58;3.85;;;;;;;;;;1787324;78;21017;-68
2022/11/21 13:11:57;;;;;;;6.78;3.80;;;;;;;;;;1792053;78;21511;-69
2022/11/21 13:14:26;;;;;;;7.97;4.40;;;;;;;;;;1791469;78;21079;-68
2022/11/21 13:16:54;;;;;;;10.15;4.28;;;;;;;;;;1780411;79;21040;-69
2022/11/21 13:19:22;;;;;;;6.53;3.67;;;;;;;;;;1765923;78;21010;-69
2022/11/21 13:21:49;;;;;;;6.83;3.85;;;;;;;;;;1784199;80;21077;-69
2022/11/21 13:24:17;;;;;;;6.40;3.58;;;;;;;;;;1779039;80;21075;-69
2022/11/21 13:26:45;;;;;;;5.78;3.33;;;;;;;;;;1772833;78;21081;-70
2022/11/21 13:29:12;;;;;;;6.28;3.75;;;;;;;;;;1784736;78;21024;-70
2022/11/21 13:31:39;;;;;;;8.18;4.22;;;;;;;;;;1783145;80;21024;-68
2022/11/21 13:34:24;;;;;;;5.40;3.10;;;;;;;;;;1793127;78;21091;-69
2022/11/21 13:36:50;;;;;;;6.05;3.35;;;;;;;;;;1788382;78;20980;-69
2022/11/21 13:39:18;;;;;;;5.80;3.17;;;;;;;;;;1789281;78;21035;-68
2022/11/21 13:44:33;;;;;;;6.50;3.52;;;;;;;;;;1751285;80;21040;-70
2022/11/21 13:47:05;;;;;;;6.72;3.22;;;;;;;;;;1746083;82;21003;-70
2022/11/21 13:49:33;;;;;;;7.03;3.30;;;;;;;;;;1747279;81;21029;-70
2022/11/21 13:52:01;;;;;;;5.28;3.40;;;;;;;;;;1747773;80;21526;-70
2022/11/21 13:54:41;;;;;;;6.53;3.75;;;;;;;;;;1749123;82;21012;-70
2022/11/21 13:57:26;;;;;;;6.65;3.80;;;;;;;;;;1748135;80;21035;-70
2022/11/21 14:00:13;;;;;;;6.85;3.62;;;;;;;;;;1748072;81;21001;-68
2022/11/21 14:02:47;;;;;;;6.20;3.85;;;;;;;;;;1754079;81;21048;-69
2022/11/21 14:05:16;;;;;;;6.50;4.17;;;;;;;;;;1743261;80;21020;-69
2022/11/21 14:07:43;;;;;;;7.75;3.80;;;;;;;;;;1754684;81;21043;-69
2022/11/21 14:10:20;;;;;;;6.95;4.28;;;;;;;;;;1757985;81;21000;-69
2022/11/21 14:12:47;;;;;;;6.42;3.62;;;;;;;;;;1759128;80;21067;-69
2022/11/21 14:15:28;;;;;;;8.70;4.50;;;;;;;;;;1756483;81;21071;-69
2022/11/21 14:17:56;;;;;;;6.20;3.55;;;;;;;;;;1758862;81;21060;-70
2022/11/21 14:20:26;;;;;;;8.13;4.92;;;;;;;;;;1755394;81;21067;-69
2022/11/21 14:22:56;;;;;;;6.15;3.87;;;;;;;;;;1758186;81;21073;-68
2022/11/21 14:25:24;;;;;;;6.28;3.58;;;;;;;;;;1753800;81;21043;-69
2022/11/21 14:27:52;;;;;;;5.12;3.37;;;;;;;;;;1758777;81;21067;-70
2022/11/21 14:30:31;;;;;;;7.62;3.70;;;;;;;;;;1751039;80;21045;-71
2022/11/21 14:32:59;;;;;;;5.55;3.72;;;;;;;;;;1749828;81;21024;-70
2022/11/21 14:35:25;;;;;;;7.40;4.03;;;;;;;;;;1710718;81;20993;-70
2022/11/21 14:37:51;;;;;;;8.28;3.90;;;;;;;;;;1742719;81;21055;-70
2022/11/21 14:40:21;;;;;;;6.97;3.58;;;;;;;;;;1743481;80;21004;-67
2022/11/21 14:42:47;;;;;;;5.95;3.37;;;;;;;;;;1782782;79;21830;-69
2022/11/21 14:45:18;;;;;;;4.92;3.22;;;;;;;;;;1768001;79;21045;-70
2022/11/21 14:47:49;;;;;;;5.75;3.50;;;;;;;;;;1784576;79;20989;-70
2022/11/21 14:50:26;;;;;;;6.22;3.30;;;;;;;;;;1792155;79;21012;-68
2022/11/21 14:52:56;;;;;;;5.22;3.10;;;;;;;;;;1777181;79;21535;-66
2022/11/21 14:55:21;;;;;;;5.67;3.20;;;;;;;;;;1800754;79;21052;-68
2022/11/21 14:57:47;;;;;;;4.80;3.08;;;;;;;;;;1723590;83;21251;-69
2022/11/21 15:00:15;;;;;;;3.65;2.65;;;;;;;;;;1718388;83;21064;-72
2022/11/21 15:02:41;;;;;;;4.30;2.70;;;;;;;;;;1720391;82;21013;-69
2022/11/21 15:05:07;;;;;;;3.72;2.60;;;;;;;;;;1726336;81;21028;-67
2022/11/21 15:07:34;;;;;;;4.53;2.85;;;;;;;;;;1716839;82;21056;-69
2022/11/21 15:10:01;;;;;;;5.03;2.90;;;;;;;;;;1734579;81;21566;-69
2022/11/21 15:12:35;;;;;;;6.80;3.85;;;;;;;;;;1720784;83;21063;-68
2022/11/21 15:15:03;;;;;;;4.30;3.17;;;;;;;;;;1712824;82;21472;-69
2022/11/21 15:17:31;;;;;;;5.45;3.30;;;;;;;;;;1707449;82;21072;-68
2022/11/21 15:20:14;;;;;;;4.92;2.80;;;;;;;;;;1707156;82;21056;-68
2022/11/21 15:22:40;;;;;;;4.50;2.80;;;;;;;;;;1718088;83;21554;-68
2022/11/21 15:25:14;;;;;;;4.95;2.95;;;;;;;;;;1719919;82;21095;-66
2022/11/21 15:27:40;;;;;;;6.03;3.25;;;;;;;;;;1710782;82;22204;-65
2022/11/21 15:30:11;;;;;;;5.97;3.27;;;;;;;;;;1724992;82;21084;-66
2022/11/21 15:32:56;;;;;;;5.42;3.10;;;;;;;;;;1727822;81;21321;-66
2022/11/21 15:35:33;;;;;;;5.62;3.30;;;;;;;;;;1739868;81;21078;-74
2022/11/21 15:38:00;;;;;;;6.10;3.20;;;;;;;;;;1732920;82;21086;-74
2022/11/21 15:40:26;;;;;;;4.33;3.15;;;;;;;;;;1701667;82;21131;-75
2022/11/21 15:42:52;;;;;;;4.22;3.05;;;;;;;;;;1750520;81;20972;-76